map of RYG home
RYG - Airport
Location
City:  Moss, Norway
Name:Moss Airport Rygge
ICAO:ENRY
IATA:RYG

Details
Type:Airport (Aerodrome, Airfield)
Use:Military, International (customs port of entry)
Latitude:5922'44"N (59.378933)
Longitude:1047'07"E (10.785389)
Datum:WGS 1984
Elevation:174 ft (53 m)
Variation:3.40E (WMM2015 magnetic declination)
0.17 annual change
Runways:1
Longest:8012 × 148 ft (2442 × 45 m), paved

Time
Time Zone:UTC+1 (DST+2)
Local Time:

Weather
METAR:ENRY 210950Z 36006KT 9999 FEW005 BKN012 M04/M06 Q1013 BECMG SCT012
TAF:ENRY 210500Z 2106/2206 03005KT 9999 FEW006
TEMPO 2106/2108 2000 -SN SG BR VV006 PROB30
TEMPO 2108/2112 BKN008
BECMG 2118/2120 BKN008

Related Locations
Nearby:
Farthest:CHT: 11311 mi / 18204 km
Waitangi [Tuuta], CIT, NZ

Find:

   beyond  
but within

Other Information
Maps:
NOTAMs:
Links:
Sources:

  
  • flag of Norway
  

Sectional Chart

Flight Planning
at skyvector.com

Satellite Image

Google Maps Satellite view

 

Copyright © 2004-2019 Karl L. Swartz. All rights reserved.
The Great Circle Mapper name and logo are trademarks of the Great Circle Mapper.
All other trademarks mentioned herein belong to their respective owners.
Please see credits for attibutions and further copyright information.

  Follow gcmap on Facebook Follow gcmap on Twitter Follow gcmap on Google+ GCmap on LinkedIn

hCard Microformat

Geo Microformat